sensor_id;sensor_type;location;lat;lon;timestamp;temperature;humidity
31809;DHT22;18379;48.208;-1.518;2023-02-28T00:06:10;1.60;99.90
31809;DHT22;18379;48.208;-1.518;2023-02-28T00:11:12;1.60;99.90
31809;DHT22;18379;48.208;-1.518;2023-02-28T00:16:19;1.50;99.90
31809;DHT22;18379;48.208;-1.518;2023-02-28T00:21:20;1.50;99.90
31809;DHT22;18379;48.208;-1.518;2023-02-28T00:26:21;1.50;99.90
31809;DHT22;18379;48.208;-1.518;2023-02-28T00:31:22;1.50;99.90
31809;DHT22;18379;48.208;-1.518;2023-02-28T00:36:23;1.50;99.90
31809;DHT22;18379;48.208;-1.518;2023-02-28T00:41:24;1.50;99.90
31809;DHT22;18379;48.208;-1.518;2023-02-28T00:46:25;1.40;99.90
31809;DHT22;18379;48.208;-1.518;2023-02-28T00:51:25;1.40;99.90
31809;DHT22;18379;48.208;-1.518;2023-02-28T00:56:26;1.40;99.90
31809;DHT22;18379;48.208;-1.518;2023-02-28T01:01:27;1.40;99.90
31809;DHT22;18379;48.208;-1.518;2023-02-28T01:06:28;1.40;99.90
31809;DHT22;18379;48.208;-1.518;2023-02-28T01:11:28;1.40;99.90
31809;DHT22;18379;48.208;-1.518;2023-02-28T01:16:30;1.40;99.90
31809;DHT22;18379;48.208;-1.518;2023-02-28T01:21:31;1.40;99.90
31809;DHT22;18379;48.208;-1.518;2023-02-28T01:26:32;1.40;99.90
31809;DHT22;18379;48.208;-1.518;2023-02-28T01:31:33;1.30;99.90
31809;DHT22;18379;48.208;-1.518;2023-02-28T01:36:33;1.10;99.90
31809;DHT22;18379;48.208;-1.518;2023-02-28T01:41:35;1.00;99.90
31809;DHT22;18379;48.208;-1.518;2023-02-28T01:46:36;1.00;99.90
31809;DHT22;18379;48.208;-1.518;2023-02-28T01:51:46;1.00;99.90
31809;DHT22;18379;48.208;-1.518;2023-02-28T01:56:58;0.90;99.90
31809;DHT22;18379;48.208;-1.518;2023-02-28T02:02:02;0.90;99.90
31809;DHT22;18379;48.208;-1.518;2023-02-28T02:07:03;0.90;99.90
31809;DHT22;18379;48.208;-1.518;2023-02-28T02:12:15;0.90;99.90
31809;DHT22;18379;48.208;-1.518;2023-02-28T02:17:33;0.90;99.90
31809;DHT22;18379;48.208;-1.518;2023-02-28T02:23:03;0.80;99.90
31809;DHT22;18379;48.208;-1.518;2023-02-28T02:48:48;1.00;99.90
31809;DHT22;18379;48.208;-1.518;2023-02-28T02:54:04;1.00;99.90
31809;DHT22;18379;48.208;-1.518;2023-02-28T02:59:09;0.90;99.90
31809;DHT22;18379;48.208;-1.518;2023-02-28T03:04:20;0.90;99.90
31809;DHT22;18379;48.208;-1.518;2023-02-28T03:09:22;0.80;99.90
31809;DHT22;18379;48.208;-1.518;2023-02-28T03:25:33;0.80;99.90
31809;DHT22;18379;48.208;-1.518;2023-02-28T03:31:06;0.80;99.90
31809;DHT22;18379;48.208;-1.518;2023-02-28T03:36:21;0.70;99.90
31809;DHT22;18379;48.208;-1.518;2023-02-28T03:41:35;0.60;99.90
31809;DHT22;18379;48.208;-1.518;2023-02-28T03:46:39;0.50;99.90
31809;DHT22;18379;48.208;-1.518;2023-02-28T03:51:42;0.50;99.90
31809;DHT22;18379;48.208;-1.518;2023-02-28T03:56:59;0.40;99.90
31809;DHT22;18379;48.208;-1.518;2023-02-28T04:02:02;0.40;99.90
31809;DHT22;18379;48.208;-1.518;2023-02-28T04:07:08;0.40;99.90
31809;DHT22;18379;48.208;-1.518;2023-02-28T04:12:09;0.40;99.90
31809;DHT22;18379;48.208;-1.518;2023-02-28T04:17:10;0.40;99.90
31809;DHT22;18379;48.208;-1.518;2023-02-28T04:22:10;0.30;99.90
31809;DHT22;18379;48.208;-1.518;2023-02-28T04:27:11;0.30;99.90
31809;DHT22;18379;48.208;-1.518;2023-02-28T04:32:12;0.30;99.90
31809;DHT22;18379;48.208;-1.518;2023-02-28T04:37:13;0.30;99.90
31809;DHT22;18379;48.208;-1.518;2023-02-28T04:42:15;0.20;99.90
31809;DHT22;18379;48.208;-1.518;2023-02-28T04:47:16;0.20;99.90
31809;DHT22;18379;48.208;-1.518;2023-02-28T04:52:17;0.10;99.90
31809;DHT22;18379;48.208;-1.518;2023-02-28T04:57:18;0.10;99.90
31809;DHT22;18379;48.208;-1.518;2023-02-28T05:02:18;0.10;99.90
31809;DHT22;18379;48.208;-1.518;2023-02-28T05:07:21;0.00;99.90
31809;DHT22;18379;48.208;-1.518;2023-02-28T05:12:22;-0.10;99.90
31809;DHT22;18379;48.208;-1.518;2023-02-28T05:17:23;-0.10;99.90
31809;DHT22;18379;48.208;-1.518;2023-02-28T05:22:24;-0.10;99.90
31809;DHT22;18379;48.208;-1.518;2023-02-28T05:27:24;-0.20;99.90
31809;DHT22;18379;48.208;-1.518;2023-02-28T05:32:25;-0.20;99.90
31809;DHT22;18379;48.208;-1.518;2023-02-28T05:37:26;-0.20;99.90
31809;DHT22;18379;48.208;-1.518;2023-02-28T05:42:27;-0.20;99.90
31809;DHT22;18379;48.208;-1.518;2023-02-28T05:47:27;-0.30;99.90
31809;DHT22;18379;48.208;-1.518;2023-02-28T05:52:29;-0.20;99.90
31809;DHT22;18379;48.208;-1.518;2023-02-28T05:57:30;-0.30;99.90
31809;DHT22;18379;48.208;-1.518;2023-02-28T06:02:31;-0.20;99.90
31809;DHT22;18379;48.208;-1.518;2023-02-28T06:07:32;-0.20;99.90
31809;DHT22;18379;48.208;-1.518;2023-02-28T06:12:32;-0.30;99.90
31809;DHT22;18379;48.208;-1.518;2023-02-28T06:17:33;-0.30;99.90
31809;DHT22;18379;48.208;-1.518;2023-02-28T06:22:36;-0.30;99.90
31809;DHT22;18379;48.208;-1.518;2023-02-28T06:27:37;-0.30;99.90
31809;DHT22;18379;48.208;-1.518;2023-02-28T06:32:40;-0.30;99.90
31809;DHT22;18379;48.208;-1.518;2023-02-28T06:37:40;-0.30;99.90
31809;DHT22;18379;48.208;-1.518;2023-02-28T06:42:42;-0.30;99.90
31809;DHT22;18379;48.208;-1.518;2023-02-28T06:47:43;-0.30;99.90
31809;DHT22;18379;48.208;-1.518;2023-02-28T06:52:44;-0.30;99.90
31809;DHT22;18379;48.208;-1.518;2023-02-28T06:57:48;-0.40;99.90
31809;DHT22;18379;48.208;-1.518;2023-02-28T07:02:51;-0.30;99.90
31809;DHT22;18379;48.208;-1.518;2023-02-28T07:07:52;-0.30;99.90
31809;DHT22;18379;48.208;-1.518;2023-02-28T07:12:53;-0.30;99.90
31809;DHT22;18379;48.208;-1.518;2023-02-28T07:17:54;-0.20;99.90
31809;DHT22;18379;48.208;-1.518;2023-02-28T07:22:55;-0.20;99.90
31809;DHT22;18379;48.208;-1.518;2023-02-28T07:27:56;-0.10;99.90
31809;DHT22;18379;48.208;-1.518;2023-02-28T07:32:59;-0.10;99.90
31809;DHT22;18379;48.208;-1.518;2023-02-28T07:38:00;0.00;99.90
31809;DHT22;18379;48.208;-1.518;2023-02-28T07:43:02;0.20;99.90
31809;DHT22;18379;48.208;-1.518;2023-02-28T07:48:03;0.30;99.90
31809;DHT22;18379;48.208;-1.518;2023-02-28T07:53:04;0.40;99.90
31809;DHT22;18379;48.208;-1.518;2023-02-28T07:58:05;0.60;99.90
31809;DHT22;18379;48.208;-1.518;2023-02-28T08:03:06;0.70;99.90
31809;DHT22;18379;48.208;-1.518;2023-02-28T08:08:07;0.80;99.90
31809;DHT22;18379;48.208;-1.518;2023-02-28T08:13:08;0.90;99.90
31809;DHT22;18379;48.208;-1.518;2023-02-28T08:18:09;1.10;99.90
31809;DHT22;18379;48.208;-1.518;2023-02-28T08:23:10;1.30;99.90
31809;DHT22;18379;48.208;-1.518;2023-02-28T08:28:11;1.40;99.90
31809;DHT22;18379;48.208;-1.518;2023-02-28T08:33:12;1.50;99.90
31809;DHT22;18379;48.208;-1.518;2023-02-28T08:38:13;1.60;99.90
31809;DHT22;18379;48.208;-1.518;2023-02-28T08:43:13;1.70;99.90
31809;DHT22;18379;48.208;-1.518;2023-02-28T08:48:14;1.80;99.90
31809;DHT22;18379;48.208;-1.518;2023-02-28T08:53:15;2.00;99.90
31809;DHT22;18379;48.208;-1.518;2023-02-28T08:58:19;2.10;99.90
31809;DHT22;18379;48.208;-1.518;2023-02-28T09:03:20;2.20;99.90
31809;DHT22;18379;48.208;-1.518;2023-02-28T09:08:23;2.30;99.90
31809;DHT22;18379;48.208;-1.518;2023-02-28T09:13:25;2.40;99.90
31809;DHT22;18379;48.208;-1.518;2023-02-28T09:18:26;2.50;99.90
31809;DHT22;18379;48.208;-1.518;2023-02-28T09:23:27;2.80;99.90
31809;DHT22;18379;48.208;-1.518;2023-02-28T09:28:28;2.90;99.90
31809;DHT22;18379;48.208;-1.518;2023-02-28T09:33:29;3.00;99.90
31809;DHT22;18379;48.208;-1.518;2023-02-28T09:38:30;3.20;99.90
31809;DHT22;18379;48.208;-1.518;2023-02-28T09:43:38;3.40;99.90
31809;DHT22;18379;48.208;-1.518;2023-02-28T09:48:41;3.50;99.90
31809;DHT22;18379;48.208;-1.518;2023-02-28T09:53:44;3.70;99.90
31809;DHT22;18379;48.208;-1.518;2023-02-28T09:58:55;3.90;99.90
31809;DHT22;18379;48.208;-1.518;2023-02-28T10:04:00;4.10;99.90
31809;DHT22;18379;48.208;-1.518;2023-02-28T10:09:08;4.30;99.90
31809;DHT22;18379;48.208;-1.518;2023-02-28T10:14:23;4.10;99.90
31809;DHT22;18379;48.208;-1.518;2023-02-28T10:24:49;4.60;99.90
31809;DHT22;18379;48.208;-1.518;2023-02-28T10:30:02;4.70;99.90
31809;DHT22;18379;48.208;-1.518;2023-02-28T10:35:10;4.70;99.90
31809;DHT22;18379;48.208;-1.518;2023-02-28T10:45:18;5.00;99.90
31809;DHT22;18379;48.208;-1.518;2023-02-28T10:56:13;5.10;99.90
31809;DHT22;18379;48.208;-1.518;2023-02-28T11:01:34;5.40;99.90
31809;DHT22;18379;48.208;-1.518;2023-02-28T11:06:35;5.50;99.90
31809;DHT22;18379;48.208;-1.518;2023-02-28T11:11:45;5.50;99.90
31809;DHT22;18379;48.208;-1.518;2023-02-28T11:16:47;5.50;99.90
31809;DHT22;18379;48.208;-1.518;2023-02-28T11:21:57;5.70;99.90
31809;DHT22;18379;48.208;-1.518;2023-02-28T11:26:58;5.80;99.90
31809;DHT22;18379;48.208;-1.518;2023-02-28T11:32:13;5.90;99.90
31809;DHT22;18379;48.208;-1.518;2023-02-28T11:37:18;6.00;99.90
31809;DHT22;18379;48.208;-1.518;2023-02-28T11:52:56;6.50;99.90
31809;DHT22;18379;48.208;-1.518;2023-02-28T12:19:27;6.80;99.90
31809;DHT22;18379;48.208;-1.518;2023-02-28T12:29:54;7.10;99.90
31809;DHT22;18379;48.208;-1.518;2023-02-28T12:35:04;7.20;99.90
31809;DHT22;18379;48.208;-1.518;2023-02-28T12:40:16;7.30;99.90
31809;DHT22;18379;48.208;-1.518;2023-02-28T12:45:24;7.60;99.90
31809;DHT22;18379;48.208;-1.518;2023-02-28T12:50:27;7.40;99.90
31809;DHT22;18379;48.208;-1.518;2023-02-28T13:17:09;8.30;99.90
31809;DHT22;18379;48.208;-1.518;2023-02-28T13:27:39;7.80;99.90
31809;DHT22;18379;48.208;-1.518;2023-02-28T13:32:41;7.70;99.90
31809;DHT22;18379;48.208;-1.518;2023-02-28T13:37:43;7.90;99.90
31809;DHT22;18379;48.208;-1.518;2023-02-28T14:09:19;6.50;99.90
31809;DHT22;18379;48.208;-1.518;2023-02-28T14:19:47;6.50;99.90
31809;DHT22;18379;48.208;-1.518;2023-02-28T14:36:03;6.40;99.90
31809;DHT22;18379;48.208;-1.518;2023-02-28T14:41:14;6.10;99.90
31809;DHT22;18379;48.208;-1.518;2023-02-28T14:46:17;6.10;99.90
31809;DHT22;18379;48.208;-1.518;2023-02-28T14:51:21;6.10;99.90
31809;DHT22;18379;48.208;-1.518;2023-02-28T14:56:36;6.10;99.90
31809;DHT22;18379;48.208;-1.518;2023-02-28T15:01:37;6.40;99.90
31809;DHT22;18379;48.208;-1.518;2023-02-28T15:06:38;6.30;99.90
31809;DHT22;18379;48.208;-1.518;2023-02-28T15:11:39;6.20;99.90
31809;DHT22;18379;48.208;-1.518;2023-02-28T15:16:43;6.00;99.90
31809;DHT22;18379;48.208;-1.518;2023-02-28T15:21:48;5.90;99.90
31809;DHT22;18379;48.208;-1.518;2023-02-28T15:26:54;5.70;99.90
31809;DHT22;18379;48.208;-1.518;2023-02-28T15:31:56;5.60;99.90
31809;DHT22;18379;48.208;-1.518;2023-02-28T15:36:57;5.50;99.90
31809;DHT22;18379;48.208;-1.518;2023-02-28T15:42:21;5.40;99.90
31809;DHT22;18379;48.208;-1.518;2023-02-28T15:47:24;5.50;99.90
31809;DHT22;18379;48.208;-1.518;2023-02-28T15:52:43;5.30;99.90
31809;DHT22;18379;48.208;-1.518;2023-02-28T15:57:45;5.10;99.90
31809;DHT22;18379;48.208;-1.518;2023-02-28T16:02:46;5.20;99.90
31809;DHT22;18379;48.208;-1.518;2023-02-28T16:07:47;5.10;99.90
31809;DHT22;18379;48.208;-1.518;2023-02-28T16:12:49;5.20;99.90
31809;DHT22;18379;48.208;-1.518;2023-02-28T16:17:50;5.30;99.90
31809;DHT22;18379;48.208;-1.518;2023-02-28T16:22:51;5.10;99.90
31809;DHT22;18379;48.208;-1.518;2023-02-28T16:27:53;5.10;99.90
31809;DHT22;18379;48.208;-1.518;2023-02-28T16:32:55;5.20;99.90
31809;DHT22;18379;48.208;-1.518;2023-02-28T16:37:56;5.20;99.90
31809;DHT22;18379;48.208;-1.518;2023-02-28T16:42:58;5.00;99.90
31809;DHT22;18379;48.208;-1.518;2023-02-28T16:48:00;5.10;99.90
31809;DHT22;18379;48.208;-1.518;2023-02-28T16:53:01;5.20;99.90
31809;DHT22;18379;48.208;-1.518;2023-02-28T16:58:03;5.30;99.90
31809;DHT22;18379;48.208;-1.518;2023-02-28T17:03:04;5.30;99.90
31809;DHT22;18379;48.208;-1.518;2023-02-28T17:08:05;5.20;99.90
31809;DHT22;18379;48.208;-1.518;2023-02-28T17:13:06;5.20;99.90
31809;DHT22;18379;48.208;-1.518;2023-02-28T17:18:13;5.20;99.90
31809;DHT22;18379;48.208;-1.518;2023-02-28T17:23:15;5.20;99.90
31809;DHT22;18379;48.208;-1.518;2023-02-28T17:28:19;5.20;99.90
31809;DHT22;18379;48.208;-1.518;2023-02-28T17:33:25;5.20;99.90
31809;DHT22;18379;48.208;-1.518;2023-02-28T17:38:26;5.20;99.90
31809;DHT22;18379;48.208;-1.518;2023-02-28T17:43:27;5.20;99.90
31809;DHT22;18379;48.208;-1.518;2023-02-28T17:48:28;5.00;99.90
31809;DHT22;18379;48.208;-1.518;2023-02-28T17:53:30;5.10;99.90
31809;DHT22;18379;48.208;-1.518;2023-02-28T17:58:31;5.10;99.90
31809;DHT22;18379;48.208;-1.518;2023-02-28T18:03:32;5.10;99.90
31809;DHT22;18379;48.208;-1.518;2023-02-28T18:08:34;5.20;99.90
31809;DHT22;18379;48.208;-1.518;2023-02-28T18:13:35;5.30;99.90
31809;DHT22;18379;48.208;-1.518;2023-02-28T18:18:36;5.20;99.90
31809;DHT22;18379;48.208;-1.518;2023-02-28T18:23:38;5.20;99.90
31809;DHT22;18379;48.208;-1.518;2023-02-28T18:28:47;5.20;99.90
31809;DHT22;18379;48.208;-1.518;2023-02-28T18:33:49;5.30;99.90
31809;DHT22;18379;48.208;-1.518;2023-02-28T18:38:51;5.40;99.90
31809;DHT22;18379;48.208;-1.518;2023-02-28T18:43:52;5.50;99.90
31809;DHT22;18379;48.208;-1.518;2023-02-28T18:48:53;5.00;99.90
31809;DHT22;18379;48.208;-1.518;2023-02-28T18:53:54;4.20;99.90
31809;DHT22;18379;48.208;-1.518;2023-02-28T18:58:55;3.60;99.90
31809;DHT22;18379;48.208;-1.518;2023-02-28T19:04:01;3.30;99.90
31809;DHT22;18379;48.208;-1.518;2023-02-28T19:09:03;3.20;99.90
31809;DHT22;18379;48.208;-1.518;2023-02-28T19:14:04;3.20;99.90
31809;DHT22;18379;48.208;-1.518;2023-02-28T19:19:05;3.20;99.90
31809;DHT22;18379;48.208;-1.518;2023-02-28T19:24:07;3.30;99.90
31809;DHT22;18379;48.208;-1.518;2023-02-28T19:29:08;3.20;99.90
31809;DHT22;18379;48.208;-1.518;2023-02-28T19:34:09;3.10;99.90
31809;DHT22;18379;48.208;-1.518;2023-02-28T19:39:10;3.20;99.90
31809;DHT22;18379;48.208;-1.518;2023-02-28T19:44:11;3.10;99.90
31809;DHT22;18379;48.208;-1.518;2023-02-28T19:49:12;3.20;99.90
31809;DHT22;18379;48.208;-1.518;2023-02-28T19:54:13;3.30;99.90
31809;DHT22;18379;48.208;-1.518;2023-02-28T19:59:14;3.20;99.90
31809;DHT22;18379;48.208;-1.518;2023-02-28T20:04:18;3.20;99.90
31809;DHT22;18379;48.208;-1.518;2023-02-28T20:09:20;3.10;99.90
31809;DHT22;18379;48.208;-1.518;2023-02-28T20:14:22;3.20;99.90
31809;DHT22;18379;48.208;-1.518;2023-02-28T20:19:23;3.10;99.90
31809;DHT22;18379;48.208;-1.518;2023-02-28T20:24:23;3.00;99.90
31809;DHT22;18379;48.208;-1.518;2023-02-28T20:29:25;2.90;99.90
31809;DHT22;18379;48.208;-1.518;2023-02-28T20:34:26;2.80;99.90
31809;DHT22;18379;48.208;-1.518;2023-02-28T20:39:27;2.70;99.90
31809;DHT22;18379;48.208;-1.518;2023-02-28T20:44:27;2.80;99.90
31809;DHT22;18379;48.208;-1.518;2023-02-28T20:49:28;2.70;99.90
31809;DHT22;18379;48.208;-1.518;2023-02-28T20:54:29;2.60;99.90
31809;DHT22;18379;48.208;-1.518;2023-02-28T20:59:30;2.50;99.90
31809;DHT22;18379;48.208;-1.518;2023-02-28T21:04:31;2.50;99.90
31809;DHT22;18379;48.208;-1.518;2023-02-28T21:09:32;2.40;99.90
31809;DHT22;18379;48.208;-1.518;2023-02-28T21:14:33;2.30;99.90
31809;DHT22;18379;48.208;-1.518;2023-02-28T21:19:34;2.30;99.90
31809;DHT22;18379;48.208;-1.518;2023-02-28T21:24:35;2.20;99.90
31809;DHT22;18379;48.208;-1.518;2023-02-28T21:29:36;2.20;99.90
31809;DHT22;18379;48.208;-1.518;2023-02-28T21:34:37;2.10;99.90
31809;DHT22;18379;48.208;-1.518;2023-02-28T21:39:37;2.00;99.90
31809;DHT22;18379;48.208;-1.518;2023-02-28T21:44:38;2.00;99.90
31809;DHT22;18379;48.208;-1.518;2023-02-28T21:49:39;2.00;99.90
31809;DHT22;18379;48.208;-1.518;2023-02-28T21:54:40;1.90;99.90
31809;DHT22;18379;48.208;-1.518;2023-02-28T21:59:43;1.90;99.90
31809;DHT22;18379;48.208;-1.518;2023-02-28T22:04:44;2.00;99.90
31809;DHT22;18379;48.208;-1.518;2023-02-28T22:09:45;2.00;99.90
31809;DHT22;18379;48.208;-1.518;2023-02-28T22:14:46;2.00;99.90
31809;DHT22;18379;48.208;-1.518;2023-02-28T22:19:47;2.00;99.90
31809;DHT22;18379;48.208;-1.518;2023-02-28T22:24:48;1.90;99.90
31809;DHT22;18379;48.208;-1.518;2023-02-28T22:29:49;1.90;99.90
31809;DHT22;18379;48.208;-1.518;2023-02-28T22:34:50;1.90;99.90
31809;DHT22;18379;48.208;-1.518;2023-02-28T22:39:51;1.80;99.90
31809;DHT22;18379;48.208;-1.518;2023-02-28T22:44:53;1.80;99.90
31809;DHT22;18379;48.208;-1.518;2023-02-28T22:49:54;1.70;99.90
31809;DHT22;18379;48.208;-1.518;2023-02-28T22:54:55;1.70;99.90
31809;DHT22;18379;48.208;-1.518;2023-02-28T22:59:55;1.60;99.90
31809;DHT22;18379;48.208;-1.518;2023-02-28T23:04:56;1.60;99.90
31809;DHT22;18379;48.208;-1.518;2023-02-28T23:09:57;1.50;99.90
31809;DHT22;18379;48.208;-1.518;2023-02-28T23:14:59;1.50;99.90
31809;DHT22;18379;48.208;-1.518;2023-02-28T23:20:00;1.40;99.90
31809;DHT22;18379;48.208;-1.518;2023-02-28T23:25:01;1.40;99.90
31809;DHT22;18379;48.208;-1.518;2023-02-28T23:30:03;1.30;99.90
31809;DHT22;18379;48.208;-1.518;2023-02-28T23:35:05;1.30;99.90
31809;DHT22;18379;48.208;-1.518;2023-02-28T23:40:09;1.20;99.90
31809;DHT22;18379;48.208;-1.518;2023-02-28T23:45:10;1.20;99.90
31809;DHT22;18379;48.208;-1.518;2023-02-28T23:50:11;1.10;99.90
31809;DHT22;18379;48.208;-1.518;2023-02-28T23:55:13;1.10;99.90
